Time;durP1;ratioP1;P1;durP2;ratioP2;P2;SDS_P1;SDS_P2;PMS_P1;PMS_P2;Temp;Humidity;BMP_temperature;BMP_pressure;BME280_temperature;BME280_humidity;BME280_pressure;Samples;Min_cycle;Max_cycle;Signal;HPM_P1;HPM_P2
2022/02/19 00:00:31;;;;;;;9.17;2.87;;;8.30;84.20;;;;;;5962438;24;20417;-85
2022/02/19 00:03:36;;;;;;;5.03;1.40;;;8.40;84.50;;;;;;5948904;24;20410;-87
2022/02/19 00:06:50;;;;;;;9.73;1.70;;;8.40;84.10;;;;;;5960768;24;20401;-86
2022/02/19 00:10:21;;;;;;;6.50;2.17;;;8.40;84.30;;;;;;5960335;24;20502;-87
2022/02/19 00:17:08;;;;;;;;;;;;;;;;;;;;;
2022/02/19 00:20:40;;;;;;;9.90;2.00;;;8.30;86.40;;;;;;6047360;23;20426;-87
2022/02/19 00:23:37;;;;;;;10.70;2.63;;;8.30;86.70;;;;;;5957134;23;20398;-86
2022/02/19 00:26:28;;;;;;;7.03;1.90;;;8.30;86.90;;;;;;6060623;23;20422;-87
2022/02/19 00:29:39;;;;;;;6.73;1.90;;;8.40;87.10;;;;;;6060541;23;20458;-87
2022/02/19 00:32:33;;;;;;;9.23;2.27;;;8.40;86.30;;;;;;6063055;23;20435;-85
2022/02/19 00:35:52;;;;;;;3.47;1.63;;;8.30;86.40;;;;;;6063946;23;20397;-84
2022/02/19 00:38:48;;;;;;;4.43;1.30;;;8.30;86.30;;;;;;6049985;23;20411;-85
2022/02/19 00:49:27;;;;;;;7.43;2.40;;;8.20;84.70;;;;;;5960595;24;20501;-85
2022/02/19 00:52:55;;;;;;;8.70;3.20;;;8.20;85.20;;;;;;5961604;24;20413;-86
2022/02/19 00:58:33;;;;;;;6.70;1.90;;;8.20;85.00;;;;;;6071795;23;20807;-86
2022/02/19 01:01:47;;;;;;;6.53;2.70;;;8.10;85.10;;;;;;6070748;23;20435;-86
2022/02/19 01:08:39;;;;;;;;;;;;;;;;;;;;;
2022/02/19 01:11:50;;;;;;;6.03;1.57;;;8.20;85.40;;;;;;6031014;23;20443;-84
2022/02/19 01:15:09;;;;;;;7.67;1.57;;;8.10;86.40;;;;;;6016950;23;20395;-87
2022/02/19 01:18:56;;;;;;;;;;;;;;;;;;;;;
2022/02/19 01:21:56;;;;;;;11.07;2.23;;;8.10;87.10;;;;;;6022897;23;20405;-87
2022/02/19 01:25:11;;;;;;;7.23;1.60;;;8.10;87.60;;;;;;6018542;23;20402;-85
2022/02/19 01:28:21;;;;;;;3.83;1.90;;;8.20;87.60;;;;;;6022930;23;20362;-86
2022/02/19 01:35:04;;;;;;;7.10;2.20;;;8.10;87.40;;;;;;6038041;23;20402;-87
2022/02/19 01:38:24;;;;;;;5.17;2.23;;;8.10;87.30;;;;;;6035080;23;20386;-87
2022/02/19 01:41:48;;;;;;;8.60;1.67;;;8.10;87.10;;;;;;6017386;23;20855;-86
2022/02/19 01:45:13;;;;;;;3.90;1.07;;;8.10;87.00;;;;;;6011073;23;20474;-86
2022/02/19 01:48:31;;;;;;;7.03;1.80;;;8.10;86.80;;;;;;5950541;23;20735;-87
2022/02/19 01:51:50;;;;;;;6.63;2.10;;;8.10;86.90;;;;;;5911614;24;20413;-86
2022/02/19 01:55:01;;;;;;;6.80;1.67;;;8.20;87.30;;;;;;5929054;24;20575;-86
2022/02/19 02:01:28;;;;;;;6.63;1.90;;;8.10;88.70;;;;;;5956314;24;20517;-85
2022/02/19 02:04:39;;;;;;;9.30;1.93;;;8.10;88.70;;;;;;5955902;24;20470;-86
2022/02/19 02:07:25;;;;;;;6.73;1.23;;;8.00;89.00;;;;;;5978821;23;20504;-88
2022/02/19 02:13:54;;;;;;;;;;;;;;;;;;;;;
2022/02/19 02:17:18;;;;;;;4.13;1.30;;;7.40;95.80;;;;;;5901024;24;21022;-85
2022/02/19 02:20:16;;;;;;;6.17;1.83;;;7.30;96.50;;;;;;5895296;24;20826;-85
2022/02/19 02:23:51;;;;;;;3.73;1.67;;;7.30;97.10;;;;;;5885646;24;20791;-86
2022/02/19 02:27:12;;;;;;;8.73;1.87;;;7.30;96.70;;;;;;5897012;24;20435;-85
2022/02/19 02:30:06;;;;;;;6.33;2.43;;;7.20;97.00;;;;;;5893449;24;20457;-84
2022/02/19 02:33:11;;;;;;;4.00;1.30;;;7.20;97.20;;;;;;5955073;24;20784;-86
2022/02/19 02:35:52;;;;;;;6.93;1.77;;;7.20;97.70;;;;;;6046284;23;20941;-85
2022/02/19 02:38:19;;;;;;;4.73;2.43;;;7.20;97.00;;;;;;6047812;23;20792;-86
2022/02/19 02:40:46;;;;;;;10.27;1.87;;;7.20;95.90;;;;;;6043502;23;20440;-86
2022/02/19 02:43:15;;;;;;;8.50;1.50;;;7.30;95.90;;;;;;6070727;23;20417;-86
2022/02/19 02:46:09;;;;;;;5.30;1.63;;;7.30;94.90;;;;;;6087206;23;20532;-87
2022/02/19 02:49:32;;;;;;;8.20;1.73;;;7.30;95.10;;;;;;6072160;23;20456;-86
2022/02/19 02:52:43;;;;;;;7.43;2.10;;;7.40;95.00;;;;;;6049753;23;20397;-85
2022/02/19 02:58:11;;;;;;;7.50;2.00;;;7.40;94.80;;;;;;6071108;23;20432;-84
2022/02/19 03:00:52;;;;;;;5.73;1.97;;;7.40;94.90;;;;;;6045097;23;20433;-84
2022/02/19 03:03:36;;;;;;;6.33;1.90;;;7.40;93.80;;;;;;6050053;23;20465;-85
2022/02/19 03:06:10;;;;;;;4.20;1.30;;;7.40;92.20;;;;;;6045878;23;20779;-85
2022/02/19 03:08:57;;;;;;;4.20;1.50;;;7.50;91.20;;;;;;6048780;23;20437;-86
2022/02/19 03:12:05;;;;;;;3.30;1.40;;;7.50;90.90;;;;;;6047269;23;20417;-86
2022/02/19 03:15:21;;;;;;;3.80;1.57;;;7.50;90.60;;;;;;6070129;23;20417;-84
2022/02/19 03:18:05;;;;;;;3.10;1.03;;;7.50;90.80;;;;;;6046027;23;20413;-84
2022/02/19 03:24:46;;;;;;;7.83;1.87;;;7.50;91.80;;;;;;6072045;23;20481;-85
2022/02/19 03:28:01;;;;;;;3.57;1.17;;;7.50;91.80;;;;;;6039595;23;20520;-86
2022/02/19 03:31:11;;;;;;;4.87;1.63;;;7.50;91.80;;;;;;6063455;23;20471;-86
2022/02/19 03:34:00;;;;;;;7.60;1.33;;;7.50;92.00;;;;;;6074086;23;20413;-88
2022/02/19 03:36:43;;;;;;;7.40;1.50;;;7.50;92.20;;;;;;6049276;23;20409;-86
2022/02/19 03:39:31;;;;;;;7.13;2.50;;;7.50;92.00;;;;;;6044317;23;20425;-87
2022/02/19 03:42:18;;;;;;;5.13;1.40;;;7.40;92.00;;;;;;6049615;23;20413;-88
2022/02/19 03:45:15;;;;;;;5.93;2.10;;;7.50;91.80;;;;;;6026326;23;20437;-86
2022/02/19 03:48:38;;;;;;;3.03;1.23;;;7.50;91.30;;;;;;6048032;23;20398;-87
2022/02/19 03:51:19;;;;;;;4.83;1.40;;;7.40;91.10;;;;;;6060923;23;20448;-87
2022/02/19 03:53:46;;;;;;;9.43;2.73;;;7.40;91.00;;;;;;6079701;23;20491;-86
2022/02/19 03:56:40;;;;;;;6.03;1.00;;;7.40;90.40;;;;;;6052962;23;20547;-86
2022/02/19 03:59:49;;;;;;;1.53;0.87;;;7.40;90.20;;;;;;6047485;23;20468;-88
2022/02/19 04:03:11;;;;;;;;;;;;;;;;;;;;;
2022/02/19 04:06:28;;;;;;;6.00;1.40;;;7.40;89.40;;;;;;6059624;23;20433;-84
2022/02/19 04:09:28;;;;;;;3.10;1.27;;;7.40;89.50;;;;;;6046050;23;20544;-84
2022/02/19 04:12:43;;;;;;;4.50;1.23;;;7.40;89.30;;;;;;6029153;23;20440;-86
2022/02/19 04:15:59;;;;;;;1.97;1.20;;;7.40;88.90;;;;;;6049166;23;20417;-86
2022/02/19 04:19:26;;;;;;;4.03;1.23;;;7.40;87.80;;;;;;6072706;23;20493;-86
2022/02/19 04:22:14;;;;;;;4.30;2.50;;;7.40;88.90;;;;;;6067421;23;20417;-85
2022/02/19 04:24:58;;;;;;;3.90;1.10;;;7.40;88.90;;;;;;6044328;23;20432;-85
2022/02/19 04:27:53;;;;;;;3.73;1.07;;;7.40;88.90;;;;;;6044426;23;20433;-84
2022/02/19 04:31:07;;;;;;;7.93;1.60;;;7.30;88.50;;;;;;6066603;23;20564;-86
2022/02/19 04:34:07;;;;;;;4.30;0.93;;;7.30;89.00;;;;;;6044655;23;20824;-85
2022/02/19 04:36:56;;;;;;;6.53;1.43;;;7.30;88.00;;;;;;6067499;23;20452;-85
2022/02/19 04:39:41;;;;;;;2.57;0.93;;;7.30;88.00;;;;;;6048878;23;20545;-86
2022/02/19 04:42:32;;;;;;;;;;;;;;;;;;;;;
2022/02/19 04:45:26;;;;;;;5.90;1.20;;;7.30;88.50;;;;;;6067275;23;20394;-86
2022/02/19 04:48:06;;;;;;;3.50;1.40;;;7.30;88.40;;;;;;6072005;23;20416;-88
2022/02/19 04:50:49;;;;;;;5.27;1.07;;;7.30;88.70;;;;;;6065975;23;20445;-87
2022/02/19 04:53:41;;;;;;;5.23;1.50;;;7.30;88.20;;;;;;6068824;23;20465;-87
2022/02/19 04:56:35;;;;;;;3.40;1.20;;;7.30;88.30;;;;;;6092980;23;20496;-88
2022/02/19 04:59:16;;;;;;;2.60;1.13;;;7.30;88.30;;;;;;6064664;23;20398;-86
2022/02/19 05:01:51;;;;;;;7.40;1.70;;;7.20;88.30;;;;;;6046694;23;20440;-86
2022/02/19 05:04:51;;;;;;;3.00;0.90;;;7.30;88.40;;;;;;6048217;23;20409;-87
2022/02/19 05:07:35;;;;;;;2.70;2.50;;;7.20;88.40;;;;;;6067835;23;20501;-86
2022/02/19 05:10:43;;;;;;;7.77;1.33;;;7.30;88.60;;;;;;6068799;23;20932;-86
2022/02/19 05:13:51;;;;;;;3.00;1.27;;;7.20;88.30;;;;;;6038357;23;20806;-87
2022/02/19 05:17:31;;;;;;;4.13;1.10;;;7.20;88.60;;;;;;6038063;23;20742;-85
2022/02/19 05:20:28;;;;;;;5.73;1.00;;;7.10;88.70;;;;;;6053670;23;20397;-85
2022/02/19 05:23:10;;;;;;;3.60;2.00;;;7.10;88.20;;;;;;6063867;23;20410;-86
2022/02/19 05:25:41;;;;;;;4.13;1.43;;;7.10;88.40;;;;;;6050718;23;20429;-85
2022/02/19 05:28:15;;;;;;;5.37;1.57;;;7.20;88.40;;;;;;6045170;23;20421;-85
2022/02/19 05:30:50;;;;;;;5.70;1.27;;;7.10;88.70;;;;;;6068351;23;20475;-84
2022/02/19 05:33:30;;;;;;;4.20;1.57;;;7.00;89.00;;;;;;6072081;23;20524;-84
2022/02/19 05:35:57;;;;;;;3.60;1.30;;;7.00;88.70;;;;;;6045421;23;20429;-85
2022/02/19 05:45:42;;;;;;;7.50;2.10;;;7.00;88.00;;;;;;5984833;23;20426;-86
2022/02/19 05:49:02;;;;;;;3.67;1.00;;;7.00;88.00;;;;;;6050747;23;20364;-87
2022/02/19 05:52:13;;;;;;;5.77;1.90;;;7.00;88.00;;;;;;6017378;23;20809;-85
2022/02/19 05:54:54;;;;;;;3.50;1.93;;;7.00;87.90;;;;;;6042666;23;20758;-86
2022/02/19 05:57:32;;;;;;;2.43;1.07;;;7.00;88.00;;;;;;6039324;23;20434;-86
2022/02/19 06:00:12;;;;;;;10.50;1.80;;;6.90;88.00;;;;;;6034889;23;20456;-85
2022/02/19 06:02:39;;;;;;;2.60;1.30;;;6.90;87.90;;;;;;6058390;23;20425;-84
2022/02/19 06:05:15;;;;;;;8.67;1.70;;;6.90;87.80;;;;;;6058389;23;20406;-83
2022/02/19 06:07:49;;;;;;;4.17;1.93;;;6.90;87.50;;;;;;6034840;23;20449;-85
2022/02/19 06:10:30;;;;;;;6.53;1.80;;;6.90;87.90;;;;;;6060060;23;20460;-85
2022/02/19 06:13:20;;;;;;;3.47;1.10;;;6.90;88.10;;;;;;6036301;23;20513;-86
2022/02/19 06:16:44;;;;;;;13.87;2.37;;;6.90;88.40;;;;;;6038706;23;20518;-85
2022/02/19 06:20:04;;;;;;;4.10;1.50;;;6.90;89.10;;;;;;5923987;24;20913;-84
2022/02/19 06:22:57;;;;;;;5.10;1.60;;;6.80;89.50;;;;;;5946738;24;20510;-86
2022/02/19 06:26:23;;;;;;;7.73;2.90;;;6.80;89.80;;;;;;5951001;24;20472;-85
2022/02/19 06:29:20;;;;;;;5.70;1.37;;;6.90;90.10;;;;;;5903734;24;20421;-87
2022/02/19 06:32:20;;;;;;;7.30;2.03;;;6.90;90.20;;;;;;5954021;24;20573;-86
2022/02/19 06:35:56;;;;;;;4.67;1.40;;;6.90;90.50;;;;;;5938810;24;20413;-85
2022/02/19 06:39:18;;;;;;;7.07;1.43;;;6.80;90.60;;;;;;5956604;24;20452;-85
2022/02/19 06:42:32;;;;;;;4.67;1.30;;;6.80;90.70;;;;;;5951256;24;20401;-87
2022/02/19 06:45:55;;;;;;;6.47;1.43;;;6.80;90.80;;;;;;5936611;24;20461;-87
2022/02/19 06:48:41;;;;;;;7.37;1.30;;;6.80;90.80;;;;;;5954845;24;20422;-87
2022/02/19 06:51:28;;;;;;;11.27;1.80;;;6.80;90.80;;;;;;5949951;24;20960;-86
2022/02/19 06:54:26;;;;;;;4.77;1.40;;;6.80;90.80;;;;;;5952089;24;20430;-85
2022/02/19 07:03:44;;;;;;;7.13;1.70;;;6.90;90.90;;;;;;6101135;23;20400;-84
2022/02/19 07:18:30;;;;;;;;;;;;;;;;;;;;;
2022/02/19 07:22:09;;;;;;;;;;;;;;;;;;;;;
2022/02/19 07:30:08;;;;;;;8.27;2.00;;;7.10;90.50;;;;;;5875191;24;20399;-83
2022/02/19 07:33:34;;;;;;;5.70;1.10;;;8.40;87.50;;;;;;5905897;24;20437;-86
2022/02/19 07:36:33;;;;;;;5.03;1.53;;;9.40;83.80;;;;;;5906237;24;20438;-85
2022/02/19 07:39:43;;;;;;;6.23;1.87;;;9.70;80.30;;;;;;5909207;24;20783;-85
2022/02/19 07:46:58;;;;;;;8.10;1.70;;;10.30;76.80;;;;;;5821975;24;20439;-84
2022/02/19 08:00:35;;;;;;;4.93;1.70;;;10.30;78.70;;;;;;5802975;24;20425;-85
2022/02/19 08:04:21;;;;;;;7.40;4.60;;;10.50;77.50;;;;;;5777831;24;20416;-86
2022/02/19 08:07:30;;;;;;;5.70;1.77;;;10.60;76.30;;;;;;5750983;24;20411;-86
2022/02/19 08:10:45;;;;;;;;;;;;;;;;;;;;;
2022/02/19 08:13:36;;;;;;;13.00;2.10;;;9.90;77.70;;;;;;5781374;24;20408;-87
2022/02/19 08:18:21;;;;;;;4.83;1.87;;;8.90;80.70;;;;;;5757402;24;20447;-86
2022/02/19 08:21:52;;;;;;;5.50;1.67;;;8.20;85.10;;;;;;5818051;24;20495;-85
2022/02/19 08:37:31;;;;;;;6.27;2.00;;;7.80;88.70;;;;;;6084242;23;20582;-85
2022/02/19 08:40:19;;;;;;;7.30;1.87;;;7.90;88.90;;;;;;6111559;23;20424;-84
2022/02/19 08:43:44;;;;;;;3.77;1.67;;;8.00;89.00;;;;;;6096423;23;20429;-86
2022/02/19 08:46:44;;;;;;;10.03;2.27;;;7.90;89.00;;;;;;6079528;23;20408;-84
2022/02/19 08:49:58;;;;;;;8.17;2.33;;;8.00;89.00;;;;;;6063316;23;20464;-86
2022/02/19 08:53:21;;;;;;;5.13;2.20;;;8.00;88.50;;;;;;6112260;23;20421;-85
2022/02/19 08:59:45;;;;;;;;;;;;;;;;;;;;;
2022/02/19 09:07:07;;;;;;;2.90;1.60;;;8.00;88.50;;;;;;5999622;23;20427;-87
2022/02/19 09:10:40;;;;;;;;;;;;;;;;;;;;;
2022/02/19 09:14:00;;;;;;;7.13;1.63;;;8.10;87.60;;;;;;5999662;23;20785;-86
2022/02/19 09:16:34;;;;;;;7.53;1.70;;;8.10;88.00;;;;;;6088272;23;20483;-86
2022/02/19 09:19:38;;;;;;;11.97;2.30;;;8.00;87.90;;;;;;6101302;23;20420;-87
2022/02/19 09:22:12;;;;;;;5.30;2.00;;;8.00;88.30;;;;;;6098797;23;20490;-86
2022/02/19 09:25:09;;;;;;;7.27;1.63;;;8.10;88.10;;;;;;6105476;23;20432;-86
2022/02/19 09:27:52;;;;;;;5.67;2.20;;;8.20;88.30;;;;;;6102516;23;20432;-86
2022/02/19 09:30:36;;;;;;;5.70;1.77;;;8.20;88.00;;;;;;6065680;23;20444;-86
2022/02/19 09:33:37;;;;;;;12.00;2.10;;;8.30;87.70;;;;;;6084197;23;20438;-86
2022/02/19 09:36:19;;;;;;;6.97;2.00;;;8.40;87.60;;;;;;6083691;23;20802;-85
2022/02/19 09:42:16;;;;;;;8.53;1.73;;;8.60;86.90;;;;;;6093636;23;20785;-86
2022/02/19 09:44:59;;;;;;;5.23;1.87;;;8.60;85.50;;;;;;6105527;23;20424;-85
2022/02/19 09:48:09;;;;;;;3.77;1.33;;;8.70;84.90;;;;;;6090779;23;20988;-86
2022/02/19 09:51:10;;;;;;;7.00;1.07;;;8.70;85.20;;;;;;6102194;23;20520;-84
2022/02/19 09:54:15;;;;;;;7.70;1.83;;;8.70;84.50;;;;;;6081606;23;20430;-85
2022/02/19 09:57:16;;;;;;;5.03;1.60;;;8.70;85.00;;;;;;6079990;23;20429;-83
2022/02/19 10:00:09;;;;;;;4.77;1.80;;;8.80;85.10;;;;;;6074669;23;20756;-85
2022/02/19 10:02:53;;;;;;;2.13;1.33;;;8.90;85.10;;;;;;5934720;24;20484;-84
2022/02/19 10:05:26;;;;;;;3.50;1.10;;;8.90;84.70;;;;;;5930471;24;20599;-86
2022/02/19 10:08:31;;;;;;;4.73;2.13;;;9.10;83.50;;;;;;5955987;24;20444;-84
2022/02/19 10:11:23;;;;;;;3.23;1.20;;;9.80;82.90;;;;;;5933572;24;20449;-86
2022/02/19 10:18:39;;;;;;;;;;;;;;;;;;;;;
2022/02/19 10:21:42;;;;;;;6.70;2.90;;;10.90;76.00;;;;;;5815249;24;20480;-87
2022/02/19 10:25:13;;;;;;;3.20;1.47;;;10.50;75.60;;;;;;5824350;24;20747;-85
2022/02/19 10:28:16;;;;;;;6.00;1.93;;;10.50;76.90;;;;;;5856249;24;20472;-87
2022/02/19 10:31:38;;;;;;;2.93;1.10;;;11.10;75.60;;;;;;5980160;23;20452;-86
2022/02/19 10:42:03;;;;;;;6.93;2.50;;;9.80;77.60;;;;;;5900105;24;20466;-88
2022/02/19 10:45:36;;;;;;;;;;;;;;;;;;;;;
2022/02/19 10:48:35;;;;;;;7.33;1.47;;;10.00;77.30;;;;;;5901432;24;20415;-87
2022/02/19 10:51:20;;;;;;;8.60;1.80;;;10.10;77.20;;;;;;5888482;23;20914;-87
2022/02/19 10:54:29;;;;;;;2.70;1.00;;;10.00;77.30;;;;;;5974862;23;20553;-85
2022/02/19 10:58:19;;;;;;;3.53;1.20;;;10.40;75.50;;;;;;6012755;23;20447;-86
2022/02/19 11:01:27;;;;;;;5.77;1.20;;;10.40;72.00;;;;;;5878274;24;20412;-86
2022/02/19 11:11:06;;;;;;;5.27;1.30;;;10.30;71.30;;;;;;6101173;23;20460;-86
2022/02/19 11:13:49;;;;;;;5.97;1.80;;;10.10;70.70;;;;;;6099833;23;20521;-86
2022/02/19 11:17:02;;;;;;;;;;;;;;;;;;;;;
2022/02/19 11:19:51;;;;;;;5.53;1.43;;;10.00;71.40;;;;;;6099691;23;20507;-86
2022/02/19 11:22:46;;;;;;;1.73;1.00;;;10.00;71.30;;;;;;6077781;23;20427;-85
2022/02/19 11:25:50;;;;;;;4.20;1.17;;;10.00;70.20;;;;;;6100730;23;20413;-85
2022/02/19 11:28:53;;;;;;;4.33;1.50;;;10.00;70.60;;;;;;6098772;23;20400;-84
2022/02/19 11:31:30;;;;;;;3.37;1.50;;;10.20;71.80;;;;;;6103539;23;20936;-86
2022/02/19 11:34:24;;;;;;;3.00;0.93;;;10.40;72.10;;;;;;6077731;23;20413;-84
2022/02/19 11:40:53;;;;;;;2.53;1.77;;;10.60;68.60;;;;;;6111570;23;20433;-86
2022/02/19 11:44:19;;;;;;;2.40;1.10;;;10.60;67.60;;;;;;6103873;23;20525;-84
2022/02/19 11:47:41;;;;;;;4.00;1.50;;;10.40;67.80;;;;;;6073134;23;20439;-86
2022/02/19 11:51:35;;;;;;;1.33;1.23;;;10.40;68.10;;;;;;5957746;24;20449;-86
2022/02/19 11:55:17;;;;;;;5.17;1.20;;;10.80;68.70;;;;;;5905950;24;20411;-85
2022/02/19 12:01:22;;;;;;;2.90;1.10;;;10.70;66.30;;;;;;5960629;24;20440;-85
2022/02/19 12:05:01;;;;;;;;;;;;;;;;;;;;;
2022/02/19 12:10:36;;;;;;;2.53;1.10;;;10.70;65.30;;;;;;6075357;23;20433;-86
2022/02/19 12:13:41;;;;;;;4.03;1.00;;;10.90;65.00;;;;;;6096228;23;20433;-87
2022/02/19 12:16:52;;;;;;;2.53;0.80;;;11.00;63.70;;;;;;6072876;23;20517;-86
2022/02/19 12:20:20;;;;;;;5.77;1.67;;;10.60;63.60;;;;;;5986601;24;20436;-85
2022/02/19 12:23:36;;;;;;;3.27;0.97;;;10.60;65.80;;;;;;5939142;24;20420;-86
2022/02/19 12:26:36;;;;;;;3.30;1.27;;;10.40;67.70;;;;;;5883756;24;20661;-85
2022/02/19 12:30:29;;;;;;;3.07;1.30;;;10.30;68.30;;;;;;5965052;24;20419;-87
2022/02/19 12:33:53;;;;;;;4.07;1.10;;;10.20;69.30;;;;;;5987116;24;20420;-86
2022/02/19 12:36:45;;;;;;;;;;;;;;;;;;;;;
2022/02/19 12:39:49;;;;;;;6.23;1.93;;;10.30;70.90;;;;;;5966490;24;20404;-85
2022/02/19 12:42:34;;;;;;;5.40;1.70;;;10.20;71.20;;;;;;5984942;24;20745;-86
2022/02/19 12:45:23;;;;;;;3.13;1.47;;;10.20;70.40;;;;;;5986037;24;20487;-85
2022/02/19 12:48:11;;;;;;;5.17;1.73;;;10.30;69.70;;;;;;5990093;24;20450;-87
2022/02/19 12:51:06;;;;;;;4.13;1.40;;;10.40;70.30;;;;;;5980259;23;20461;-86
2022/02/19 12:54:24;;;;;;;4.87;1.63;;;10.50;70.30;;;;;;6017419;23;20840;-86
2022/02/19 12:57:13;;;;;;;2.87;1.57;;;10.50;70.30;;;;;;5994841;23;20470;-85
2022/02/19 13:00:08;;;;;;;5.93;1.60;;;10.60;68.90;;;;;;5981419;23;20442;-85
2022/02/19 13:03:08;;;;;;;2.40;0.93;;;10.60;69.00;;;;;;5994949;23;20411;-85
2022/02/19 13:09:22;;;;;;;4.00;1.70;;;11.20;64.60;;;;;;6105402;23;20437;-85
2022/02/19 13:12:46;;;;;;;3.73;1.30;;;10.80;64.90;;;;;;6067119;23;20539;-84
2022/02/19 13:15:49;;;;;;;5.27;1.17;;;10.70;66.10;;;;;;5965829;23;20425;-85
2022/02/19 13:19:13;;;;;;;;;;;;;;;;;;;;;
2022/02/19 13:22:40;;;;;;;3.90;1.30;;;10.70;67.20;;;;;;5951532;24;20479;-86
2022/02/19 13:25:38;;;;;;;;;;;;;;;;;;;;;
2022/02/19 13:44:02;;;;;;;4.97;1.47;;;11.30;67.30;;;;;;5744775;24;20418;-84
2022/02/19 13:51:43;;;;;;;2.77;0.87;;;11.70;63.70;;;;;;5773161;24;20543;-87
2022/02/19 13:59:02;;;;;;;4.07;1.37;;;11.30;60.10;;;;;;5831102;24;21057;-86
2022/02/19 14:02:30;;;;;;;3.70;0.90;;;11.20;60.30;;;;;;5845191;24;20471;-87
2022/02/19 14:06:07;;;;;;;2.13;1.17;;;11.30;60.70;;;;;;5859606;24;20405;-85
2022/02/19 14:09:32;;;;;;;1.83;1.20;;;11.10;59.60;;;;;;5915533;24;20409;-86
2022/02/19 14:12:32;;;;;;;7.20;1.40;;;10.80;61.60;;;;;;5938029;24;20453;-87
2022/02/19 14:15:57;;;;;;;2.40;1.27;;;10.80;63.20;;;;;;5956728;24;20979;-87
2022/02/19 14:19:29;;;;;;;4.63;1.27;;;10.70;64.30;;;;;;5934430;24;21001;-87
2022/02/19 14:26:39;;;;;;;3.00;2.50;;;11.10;65.10;;;;;;5986386;23;20412;-86
2022/02/19 14:30:29;;;;;;;3.13;1.17;;;11.30;64.40;;;;;;6009008;23;20412;-85
2022/02/19 14:37:00;;;;;;;3.13;0.90;;;11.20;65.10;;;;;;5973566;23;20530;-84
2022/02/19 14:39:43;;;;;;;2.80;0.90;;;11.00;62.70;;;;;;6051919;23;20414;-85
2022/02/19 14:42:35;;;;;;;3.93;1.17;;;11.10;63.10;;;;;;6052305;23;20492;-85
2022/02/19 14:45:24;;;;;;;;;;;;;;;;;;;;;
2022/02/19 14:48:02;;;;;;;3.17;0.97;;;11.30;62.80;;;;;;6075838;23;20438;-85
2022/02/19 14:50:31;;;;;;;4.77;1.10;;;11.30;62.20;;;;;;6077533;23;20437;-85
2022/02/19 14:53:09;;;;;;;2.60;0.90;;;11.20;62.00;;;;;;6051703;23;20420;-86
2022/02/19 14:55:56;;;;;;;2.27;0.90;;;11.30;62.10;;;;;;6054507;23;20401;-88
2022/02/19 14:58:23;;;;;;;2.77;0.93;;;11.00;62.10;;;;;;6075776;23;21027;-87
2022/02/19 15:01:15;;;;;;;3.90;0.93;;;11.30;60.80;;;;;;6070282;23;20445;-87
2022/02/19 15:03:47;;;;;;;4.70;1.80;;;11.30;60.50;;;;;;6049350;23;20421;-88
2022/02/19 15:06:24;;;;;;;2.43;1.20;;;11.00;61.50;;;;;;6073393;23;20488;-86
2022/02/19 15:08:55;;;;;;;2.40;0.90;;;10.80;61.80;;;;;;6056804;23;20421;-87
2022/02/19 15:12:07;;;;;;;5.30;0.87;;;10.90;61.60;;;;;;6064743;23;20481;-86
2022/02/19 15:15:02;;;;;;;2.00;1.13;;;11.00;61.10;;;;;;6085145;23;20405;-84
2022/02/19 15:17:54;;;;;;;2.60;1.30;;;11.00;62.10;;;;;;6059124;23;20457;-86
2022/02/19 15:20:35;;;;;;;2.60;1.27;;;11.30;61.20;;;;;;6073518;23;20488;-87
2022/02/19 15:23:09;;;;;;;2.10;1.17;;;11.00;62.00;;;;;;6056084;23;20437;-84
2022/02/19 15:25:36;;;;;;;2.70;1.17;;;10.90;62.60;;;;;;6081174;23;20413;-85
2022/02/19 15:28:08;;;;;;;2.33;0.90;;;10.90;63.10;;;;;;6053594;23;20481;-87
2022/02/19 15:30:35;;;;;;;5.80;1.23;;;11.20;62.50;;;;;;6052482;23;20592;-86
2022/02/19 15:33:08;;;;;;;2.33;1.10;;;11.10;63.00;;;;;;6076020;23;20433;-86
2022/02/19 15:35:35;;;;;;;5.07;2.00;;;10.80;64.20;;;;;;6076745;23;20417;-87
2022/02/19 15:38:13;;;;;;;3.93;1.90;;;10.60;65.80;;;;;;6078054;23;20493;-86
2022/02/19 15:40:50;;;;;;;2.07;0.80;;;10.50;66.80;;;;;;6074781;23;20420;-86
2022/02/19 15:43:41;;;;;;;1.90;0.90;;;10.90;64.90;;;;;;6075737;23;21101;-85
2022/02/19 15:46:25;;;;;;;2.27;1.00;;;10.60;65.90;;;;;;6052702;23;20500;-87
2022/02/19 15:52:31;;;;;;;2.00;1.43;;;10.70;65.90;;;;;;6075138;23;20441;-87
2022/02/19 15:55:08;;;;;;;3.43;1.30;;;10.60;66.90;;;;;;6051829;23;20512;-87
2022/02/19 15:57:49;;;;;;;3.77;1.33;;;10.40;67.20;;;;;;6056353;23;20433;-85
2022/02/19 16:01:04;;;;;;;1.70;1.03;;;10.50;66.60;;;;;;6065723;23;20873;-85
2022/02/19 16:04:06;;;;;;;3.10;1.30;;;10.70;66.00;;;;;;6049815;23;20405;-86
2022/02/19 16:07:05;;;;;;;1.80;0.80;;;10.60;65.80;;;;;;6050467;23;20437;-86
2022/02/19 16:10:07;;;;;;;3.50;1.40;;;10.70;65.80;;;;;;6080270;23;20421;-86
2022/02/19 16:13:19;;;;;;;5.93;1.57;;;10.40;67.00;;;;;;6084730;23;20528;-89
2022/02/19 16:19:12;;;;;;;4.43;1.43;;;10.50;68.80;;;;;;6001547;23;20451;-88
2022/02/19 16:22:36;;;;;;;2.83;1.50;;;10.40;69.40;;;;;;5981764;23;20416;-88
2022/02/19 16:26:05;;;;;;;3.83;1.33;;;10.50;70.40;;;;;;5978579;24;20423;-87
2022/02/19 16:28:50;;;;;;;2.77;1.20;;;10.50;70.30;;;;;;5969787;24;20397;-86
2022/02/19 16:34:47;;;;;;;2.93;1.13;;;10.10;71.30;;;;;;5970026;23;20412;-84
2022/02/19 16:37:28;;;;;;;1.73;1.43;;;10.20;71.90;;;;;;5971443;23;20440;-86
2022/02/19 16:43:48;;;;;;;2.33;1.17;;;9.90;74.90;;;;;;5931481;24;20486;-86
2022/02/19 16:47:13;;;;;;;3.27;1.43;;;10.30;72.60;;;;;;5888911;23;20467;-86
2022/02/19 16:50:03;;;;;;;2.90;1.10;;;10.20;72.40;;;;;;5961894;24;20480;-85
2022/02/19 16:52:55;;;;;;;1.47;0.83;;;10.00;72.90;;;;;;5988058;23;20456;-83
2022/02/19 16:55:30;;;;;;;1.90;1.10;;;10.20;71.90;;;;;;6075106;23;20448;-80
2022/02/19 16:58:10;;;;;;;2.60;1.43;;;10.20;71.60;;;;;;6096084;23;20433;-82
2022/02/19 17:00:38;;;;;;;1.50;1.00;;;10.10;71.40;;;;;;6098053;23;20401;-81
2022/02/19 17:03:06;;;;;;;2.90;0.83;;;10.20;71.10;;;;;;6096630;23;20433;-80
2022/02/19 17:05:33;;;;;;;2.10;1.30;;;10.10;71.10;;;;;;6098920;23;20425;-83
2022/02/19 17:08:01;;;;;;;1.83;1.10;;;10.00;71.90;;;;;;6099400;23;20933;-83
2022/02/19 17:10:27;;;;;;;3.53;1.23;;;10.10;72.20;;;;;;6100217;23;20413;-82
2022/02/19 17:12:55;;;;;;;2.60;1.13;;;10.00;72.20;;;;;;6099108;23;20445;-82
2022/02/19 17:15:22;;;;;;;1.13;1.03;;;9.90;73.50;;;;;;6099213;23;20417;-82
2022/02/19 17:17:49;;;;;;;3.87;1.50;;;9.90;74.10;;;;;;6104808;23;20494;-79
2022/02/19 17:20:16;;;;;;;4.60;1.10;;;9.90;73.70;;;;;;6078774;23;20434;-81
2022/02/19 17:22:44;;;;;;;2.93;1.33;;;9.90;73.60;;;;;;6096518;23;20460;-83
2022/02/19 17:25:12;;;;;;;7.50;1.60;;;10.00;72.20;;;;;;6098412;23;20410;-82
2022/02/19 17:27:39;;;;;;;3.03;1.67;;;9.90;72.80;;;;;;6076305;23;20423;-81
2022/02/19 17:30:07;;;;;;;4.20;1.70;;;9.80;73.10;;;;;;6100116;23;20410;-82
2022/02/19 17:32:35;;;;;;;4.30;1.73;;;9.80;73.10;;;;;;6075316;23;20563;-81
2022/02/19 17:35:02;;;;;;;5.07;1.50;;;9.90;73.00;;;;;;6076658;23;20460;-82
2022/02/19 17:37:29;;;;;;;4.33;1.43;;;9.80;73.10;;;;;;6097449;23;20439;-82
2022/02/19 17:39:56;;;;;;;2.67;1.47;;;9.80;73.10;;;;;;6097427;23;20413;-81
2022/02/19 17:42:23;;;;;;;3.50;1.70;;;9.70;73.30;;;;;;6101607;23;20450;-84
2022/02/19 17:44:50;;;;;;;2.20;1.20;;;9.70;73.70;;;;;;6101357;23;20409;-81
2022/02/19 17:47:18;;;;;;;4.57;1.43;;;9.80;73.50;;;;;;6101354;23;20402;-82
2022/02/19 17:49:45;;;;;;;3.40;1.20;;;9.80;73.80;;;;;;6101496;23;20406;-82
2022/02/19 17:52:12;;;;;;;4.90;2.40;;;9.80;73.70;;;;;;6077825;23;20477;-82
2022/02/19 17:54:39;;;;;;;5.20;1.70;;;9.70;74.30;;;;;;6102804;23;20425;-82
2022/02/19 17:57:07;;;;;;;5.23;1.97;;;9.80;74.40;;;;;;6100808;23;20437;-83
2022/02/19 17:59:34;;;;;;;1.93;1.23;;;9.80;74.20;;;;;;6078924;23;20414;-82
2022/02/19 18:02:02;;;;;;;3.97;1.43;;;9.80;74.10;;;;;;6103363;23;20427;-81
2022/02/19 18:04:35;;;;;;;5.00;1.40;;;9.70;74.10;;;;;;6079796;23;21002;-80
2022/02/19 18:07:03;;;;;;;4.40;1.30;;;9.70;73.50;;;;;;6078676;23;20653;-81
2022/02/19 18:09:33;;;;;;;5.33;1.47;;;9.70;73.90;;;;;;6095778;23;20413;-80
2022/02/19 18:12:04;;;;;;;2.63;1.40;;;9.70;73.80;;;;;;6095845;23;20464;-80
2022/02/19 18:14:33;;;;;;;4.17;1.53;;;9.80;74.10;;;;;;6096592;23;20421;-80
2022/02/19 18:17:04;;;;;;;1.27;1.10;;;9.70;74.10;;;;;;6105894;23;20405;-80
2022/02/19 18:19:32;;;;;;;3.93;1.30;;;9.80;74.40;;;;;;6090300;23;20408;-79
2022/02/19 18:21:59;;;;;;;2.40;1.67;;;9.60;74.80;;;;;;6082137;23;20433;-80
2022/02/19 18:24:26;;;;;;;2.20;1.60;;;9.60;74.90;;;;;;6110212;23;20445;-80
2022/02/19 18:26:55;;;;;;;4.10;1.83;;;9.70;74.90;;;;;;6090690;23;20417;-80
2022/02/19 18:29:22;;;;;;;2.20;1.30;;;9.70;75.10;;;;;;6112086;23;20457;-81
2022/02/19 18:31:50;;;;;;;8.17;1.30;;;9.80;75.10;;;;;;6076157;23;20448;-81
2022/02/19 18:34:17;;;;;;;3.17;1.47;;;9.80;75.00;;;;;;6099249;23;20430;-81
2022/02/19 18:36:43;;;;;;;2.50;1.27;;;9.80;74.90;;;;;;6075365;23;20409;-79
2022/02/19 18:39:11;;;;;;;5.00;1.10;;;9.70;75.10;;;;;;6097540;23;20410;-81
2022/02/19 18:41:37;;;;;;;4.73;1.20;;;9.60;75.50;;;;;;6074629;23;20413;-82
2022/02/19 18:44:06;;;;;;;4.17;1.30;;;9.60;76.10;;;;;;6074204;23;20437;-83
2022/02/19 18:46:34;;;;;;;3.03;1.37;;;9.50;76.20;;;;;;6096130;23;20417;-82
2022/02/19 18:49:01;;;;;;;4.40;1.17;;;9.50;76.50;;;;;;6078936;23;20433;-82